1958 Tropical Low NOT_NAMED (1958320S08099)


IBTrACS version v04r00. Visit IBTrACS website for data access.
Please direct all questions to the IBTrACS Q and A forum

Storm track - Intensity - Wind Radii - Intensity Data - Source Data - All data

Summary Information

Storm ID 1958320S08099
Start Nov 16 06Z
Max Intensity 25 kt (Nov 16 09Z), 992 mb (Nov 18 06Z)
End Nov 22 22Z
ATCF IDs ,SH021959,SH031959
Track status Best track data.

Storm track plot

Map of storm track

Intensity plots

Map of storm track

Radial wind information

No radial wind information for this storm


Position and Intensity Table

BASIN ISO_TIME_________ NATURE LAT LON WMO PRES USA WIND BOM PRES DS824 WIND
degrees north degrees east mb kts mb kts
SI 1958-11-16 06:00:00 TS -7.90 99.40 25
SI 09:00:00 TS -7.95 99.35 25
SI 12:00:00 TS -8.01 99.28 25
SI 15:00:00 TS -8.06 99.19 25
SI 16:00:00 TS -7.84 99.14 25
SI 18:00:00 TS -7.55 99.07 25
SI 21:00:00 TS -7.76 99.03 25
SI 1958-11-17 00:00:00 TS -8.15 98.99 25
SI 01:00:00 TS -8.33 98.97 1004 1004 25
SI 03:00:00 TS -8.55 98.89 1002 25
SI 04:00:00 TS -8.65 98.85 1002 1002 25
SI 06:00:00 TS -8.82 98.74 1000 25
SI 07:00:00 TS -8.90 98.68 1000 1000 25
SI 09:00:00 TS -9.02 98.55 1000 25
SI 10:00:00 TS -9.08 98.48 1000 1000 25
SI 12:00:00 TS -9.19 98.33 999 25
SI 15:00:00 TS -9.36 98.09 997 25
SI 16:00:00 TS -9.42 98.01 997 25
SI 18:00:00 TS -9.56 97.84 996 25
SI 21:00:00 TS -9.79 97.59 995 25
SI 22:00:00 TS -9.86 97.51 995 995 25
SI 1958-11-18 00:00:00 TS -10.02 97.34 995 25
SI 01:00:00 TS -10.09 97.26 995 995 25
SI 03:00:00 TS -10.23 97.10 994 25
SI 04:00:00 TS -10.30 97.02 994 994 25
SI 06:00:00 TS -10.42 96.86 992 25
SI 07:00:00 TS -10.48 96.77 992 992 25
SI 09:00:00 TS -10.59 96.59 993 25
SI 10:00:00 TS -10.65 96.50 994 994 25
SI 12:00:00 TS -10.79 96.32 994 25
SI 15:00:00 TS -11.02 96.05 995 25
SI 16:00:00 TS -11.12 95.96 996 996 25
SI 18:00:00 TS -11.32 95.78 996 25
SI 19:00:00 TS -11.42 95.69 997 997 25
SI 21:00:00 TS -11.63 95.50 997 25
SI 22:00:00 TS -11.75 95.40 998 998 25
SI 1958-11-19 00:00:00 TS -11.98 95.20 998 25
SI 01:00:00 TS -12.10 95.09 999 999 25
SI 03:00:00 TS -12.39 94.82 999 25
SI 04:00:00 TS -12.54 94.68 1000 1000 25
SI 06:00:00 TS -12.84 94.41 1000 25
SI 07:00:00 TS -12.99 94.27 1001 1001 25
SI 09:00:00 TS -13.30 94.01 1001 25
SI 10:00:00 TS -13.46 93.88 1001 1001 25
SI 12:00:00 TS -13.77 93.62 1001 25
SI 15:00:00 TS -14.25 93.24 1001 25
SI 16:00:00 TS -14.41 93.12 1001 1001 25
SI 18:00:00 TS -14.73 92.86 1001 25
SI 19:00:00 TS -14.89 92.72 1001 1001 25
SI 21:00:00 TS -15.20 92.43 1001 25
SI 22:00:00 TS -15.36 92.29 1001 1001 25
SI 1958-11-20 00:00:00 TS -15.66 92.03 1001 25
SI 01:00:00 TS -15.80 91.92 1002 1002 25
SI 03:00:00 TS -16.04 91.79 1002 25
SI 04:00:00 TS -16.16 91.76 1002 1002 25
SI 06:00:00 TS -16.40 91.67 1002 25
SI 07:00:00 TS -16.52 91.64 1003 1003 25
SI 09:00:00 TS -16.74 91.56 1003 25
SI 10:00:00 TS -16.85 91.52 1003 1003 25
SI 12:00:00 TS -17.07 91.44 1003 25
SI 15:00:00 TS -17.43 91.29 1003 25
SI 16:00:00 TS -17.55 91.24 1004 1004 25
SI 18:00:00 TS -17.78 91.12 1004 25
SI 21:00:00 TS -18.10 90.92 1004 25
SI 1958-11-21 00:00:00 TS -18.41 90.74 1004 25
SI 03:00:00 TS -18.63 90.51 1004 25
SI 04:00:00 TS -18.61 90.39 1004 1004 25
SI 06:00:00 TS -18.62 90.31 1004 25
SI 09:00:00 TS -18.56 90.38 1004
SI 10:00:00 TS -18.62 90.46 1004 1004
SI 12:00:00 TS -18.73 90.60 20 1004
SI 15:00:00 TS -18.93 90.81 17 1004
SI 16:00:00 TS -19.01 90.88 1004 16 1004
SI 18:00:00 TS -19.19 91.01 15 1004
SI 21:00:00 TS -19.48 91.20 17 1004
SI 1958-11-22 00:00:00 TS -19.79 91.38 20 1005
SI 03:00:00 TS -20.10 91.54 20 1005
SI 04:00:00 TS -20.20 91.60 1006 20 1006
SI 06:00:00 TS -20.39 91.71 20 1006
SI 09:00:00 TS -20.64 91.91 17 1007
SI 10:00:00 TS -20.72 91.98 1008 16 1008
SI 12:00:00 TS -20.88 92.12 15 1009
SI 15:00:00 NR -21.12 92.33 1010
SI 16:00:00 NR -21.20 92.40 1011
SI 18:00:00 NR -21.36 92.53 1012
SI 21:00:00 NR -21.62 92.73 1013
SI 22:00:00 NR -21.70 92.80 1014 1014

Source Information

Agency Information
USA bsh021959.txt::bsh031959.txt
TOKYO
CMA
HKO
NEWDELHI
REUNION
BOM IDCKMSTM0S.csv:Line=2707:unnamed
NADI
WELLINGTON
DS824 s_hem.dat:750:02S
TD9636 cons_worldwide_trop_cyclone_18710101-19891231-005:Line=7619
TD9635
NEUMANN
MLC

All available IBTrACS Data

SEASON BASIN SUBBASIN ISO_TIME_________ NATURE LAT LON WMO PRES WMO AGENCY DIST2LAND LANDFALL IFLAG USA AGENCY USA ATCF_ID USA LAT USA LON USA WIND USA SSHS BOM LAT BOM LON BOM PRES DS824 LAT DS824 LON DS824 STAGE DS824 WIND TD9636 LAT TD9636 LON TD9636 STAGE STORM SPEED STORM DIR
Year degrees north degrees east mb km km degrees north degrees east kts 1 degrees north degrees east mb degrees north degrees east kts degrees north degrees east kts degrees
1959 SI WA 1958-11-16 06:00:00 TS -7.90 99.40 542 542 O________OO___ jtwc_sh SH021959 -7.90 99.40 -1 -7.90 99.40 TC 25 -7.90 99.40 7 2 227
1959 SI WA 09:00:00 TS -7.95 99.35 557 557 P________PP___ SH021959 -7.95 99.36 -1 -7.95 99.36 TC 25 -7.97 99.31 7 2 229
1959 SI WA 12:00:00 TS -8.01 99.28 557 557 O________OP___ jtwc_sh SH021959 -8.00 99.30 -1 -8.00 99.30 TC 25 -8.03 99.23 7 2 236
1959 SI WA 15:00:00 TS -8.06 99.19 573 555 P________PP___ SH021959 -8.06 99.20 -1 -8.06 99.20 TC 25 -8.07 99.16 7 3 322
1959 SI WA 16:00:00 TS -7.84 99.14 553 536 P________PP___ SH021959 -8.07 99.16 -1 -8.07 99.16 TC 25 -8.09 99.14 7 10 348
1959 SI WA 18:00:00 TS -7.55 99.07 536 528 O________OO___ jtwc_sh SH021959 -8.10 99.10 -1 -8.10 99.10 TC 25 -8.10 99.10 1 2 309
1959 SI WA 21:00:00 TS -7.76 99.03 561 561 P________PP___ SH021959 -8.10 99.05 -1 -8.10 99.05 TC 25 -8.10 99.06 1 6 188
1959 SI WA 1958-11-17 00:00:00 TS -8.15 98.99 595 595 O________OP___ jtwc_sh SH021959 -8.10 99.00 -1 -8.10 99.00 TC 25 -8.10 99.01 1 9 187
1959 SI WA 01:00:00 TS -8.33 98.97 1004 bom 604 604 P_____O__PP___ SH021959 -8.10 98.98 -1 -9.00 99.00 1004 -8.10 98.98 TC 25 -8.11 98.99 1 8 194
1959 SI WA 03:00:00 TS -8.55 98.89 637 637 P_____P__PP___ SH021959 -8.12 98.92 -1 -9.05 98.87 1002 -8.12 98.92 TC 25 -8.13 98.93 1 7 200
1959 SI WA 04:00:00 TS -8.65 98.85 1002 bom 653 653 P_____O__PP___ SH021959 -8.14 98.89 -1 -9.10 98.80 1002 -8.14 98.89 TC 25 -8.15 98.90 1 6 211
1959 SI WA 06:00:00 TS -8.82 98.74 669 669 O_____P__OO___ jtwc_sh SH021959 -8.20 98.80 -1 -9.24 98.67 1000 -8.20 98.80 TC 25 -8.20 98.80 1 6 215
1959 SI WA 07:00:00 TS -8.90 98.68 1000 bom 677 677 P_____O__PP___ SH021959 -8.25 98.75 -1 -9.30 98.60 1000 -8.25 98.75 TC 25 -8.24 98.74 1 6 223
1959 SI WA 09:00:00 TS -9.02 98.55 700 700 P_____P__PP___ SH021959 -8.38 98.64 -1 -9.37 98.47 1000 -8.38 98.64 TC 25 -8.35 98.59 1 5 227
1959 SI WA 10:00:00 TS -9.08 98.48 1000 bom 708 708 P_____O__PP___ SH021959 -8.45 98.57 -1 -9.40 98.40 1000 -8.45 98.57 TC 25 -8.41 98.51 1 5 232
1959 SI WA 12:00:00 TS -9.19 98.33 731 731 O_____P__OP___ jtwc_sh SH021959 -8.60 98.40 -1 -9.49 98.28 999 -8.60 98.40 TC 25 -8.55 98.33 1 6 234
1959 SI WA 15:00:00 TS -9.36 98.09 762 762 P_____P__PP___ SH021959 -8.80 98.07 -1 -9.65 98.11 997 -8.80 98.07 TC 25 -8.77 98.03 1 6 234
1959 SI WA 16:00:00 TS -9.42 98.01 769 769 P_____P__PP___ SH021959 -8.87 97.95 -1 -9.71 98.05 997 -8.87 97.95 TC 25 -8.85 97.92 1 6 231
1959 SI WA 18:00:00 TS -9.56 97.84 800 800 O_____P__OO___ jtwc_sh SH021959 -9.00 97.70 -1 -9.86 97.94 996 -9.00 97.70 TC 25 -9.00 97.70 1 7 228
1959 SI WA 21:00:00 TS -9.79 97.59 831 831 P_____P__PP___ SH021959 -9.20 97.35 -1 -10.11 97.76 995 -9.20 97.35 TC 25 -9.18 97.38 1 7 227
1959 SI WA 22:00:00 TS -9.86 97.51 995 bom 847 847 P_____O__PP___ SH021959 -9.27 97.23 -1 -10.20 97.70 995 -9.27 97.23 TC 25 -9.23 97.27 1 7 226
1959 SI WA 1958-11-18 00:00:00 TS -10.02 97.34 869 869 O_____P__OP___ jtwc_sh SH021959 -9.40 97.00 -1 -10.41 97.57 995 -9.40 97.00 TC 25 -9.35 97.04 1 7 226
1959 SI WA 01:00:00 TS -10.09 97.26 995 bom 878 878 P_____O__PP___ SH021959 -9.46 96.89 -1 -10.50 97.50 995 -9.46 96.89 TC 25 -9.42 96.93 1 6 228
1959 SI WA 03:00:00 TS -10.23 97.10 901 901 P_____P__PP___ SH021959 -9.58 96.66 -1 -10.65 97.37 994 -9.58 96.66 TC 25 -9.56 96.68 1 6 229
1959 SI WA 04:00:00 TS -10.30 97.02 994 bom 916 916 P_____O__PP___ SH021959 -9.65 96.54 -1 -10.70 97.30 994 -9.65 96.54 TC 25 -9.63 96.56 1 6 232
1959 SI WA 06:00:00 TS -10.42 96.86 932 932 O_____P__OO___ jtwc_sh SH021959 -9.80 96.30 -1 -10.77 97.17 992 -9.80 96.30 TC 25 -9.80 96.30 1 6 234
1959 SI WA 07:00:00 TS -10.48 96.77 992 bom 947 947 P_____O__PP___ SH021959 -9.88 96.17 -1 -10.80 97.10 992 -9.88 96.17 TC 25 -9.89 96.16 1 6 237
1959 SI WA 09:00:00 TS -10.59 96.59 970 970 P_____P__PP___ SH021959 -10.07 95.91 -1 -10.86 96.96 993 -10.07 95.91 TC 25 -10.09 95.88 1 6 237
1959 SI WA 10:00:00 TS -10.65 96.50 994 bom 986 986 P_____O__PP___ SH021959 -10.17 95.78 -1 -10.90 96.90 994 -10.17 95.78 TC 25 -10.20 95.73 1 7 235
1959 SI WA 12:00:00 TS -10.79 96.32 1009 1009 O_____P__OP___ jtwc_sh SH021959 -10.40 95.50 -1 -10.97 96.80 994 -10.40 95.50 TC 25 -10.43 95.44 1 7 230
1959 SI WA 15:00:00 TS -11.02 96.05 1040 1040 P_____P__PP___ SH021959 -10.79 95.04 -1 -11.12 96.65 995 -10.79 95.04 TC 25 -10.80 95.00 1 7 226
1959 SI WA 16:00:00 TS -11.12 95.96 996 bom 1056 1056 P_____O__PP___ SH021959 -10.92 94.89 -1 -11.20 96.60 996 -10.92 94.89 TC 25 -10.93 94.86 1 8 222
1959 SI WA 18:00:00 TS -11.32 95.78 1087 1087 O_____P__OO___ jtwc_sh SH021959 -11.20 94.60 -1 -11.39 96.47 996 -11.20 94.60 TC 25 -11.20 94.60 1 8 222
1959 SI WA 19:00:00 TS -11.42 95.69 997 bom 1102 1102 P_____O__PP___ SH021959 -11.33 94.47 -1 -11.50 96.40 997 -11.33 94.47 TC 25 -11.33 94.47 1 8 221
1959 SI WA 21:00:00 TS -11.63 95.50 1134 1134 P_____P__PP___ SH021959 -11.59 94.22 -1 -11.71 96.27 997 -11.59 94.22 TC 25 -11.60 94.22 1 9 221
1959 SI WA 22:00:00 TS -11.75 95.40 998 bom 1149 1149 P_____O__PP___ SH021959 -11.73 94.11 -1 -11.80 96.20 998 -11.73 94.11 TC 25 -11.74 94.10 1 9 221
1959 SI WA 1958-11-19 00:00:00 TS -11.98 95.20 1189 1189 O_____P__OP___ jtwc_sh SH021959 -12.00 93.90 -1 -11.92 96.10 998 -12.00 93.90 TC 25 -12.03 93.88 1 9 221
1959 SI WA 01:00:00 TS -12.10 95.09 999 bom 1204 1204 P_____O__PP___ SH021959 -12.15 93.79 -1 -12.00 96.00 999 -12.15 93.79 TC 25 -12.17 93.78 1 11 222
1959 SI WA 03:00:00 TS -12.39 94.82 1251 1251 P_____P__PP___ SH021959 -12.45 93.61 -1 -12.32 95.62 999 -12.45 93.61 TC 25 -12.46 93.60 1 12 222
1959 SI WA 04:00:00 TS -12.54 94.68 1000 bom 1267 1267 P_____O__PP___ SH021959 -12.60 93.52 -1 -12.50 95.40 1000 -12.60 93.52 TC 25 -12.61 93.52 1 12 222
1959 SI WA 06:00:00 TS -12.84 94.41 1314 1314 O_____P__OO___ jtwc_sh SH021959 -12.90 93.40 -1 -12.83 95.00 1000 -12.90 93.40 TC 25 -12.90 93.40 1 12 221
1959 SI WA 07:00:00 TS -12.99 94.27 1001 bom 1337 1337 P_____O__PP___ SH021959 -13.04 93.36 -1 -13.00 94.80 1001 -13.04 93.36 TC 25 -13.04 93.36 1 12 220
1959 SI WA 09:00:00 TS -13.30 94.01 1384 1384 P_____P__PP___ SH021959 -13.30 93.31 -1 -13.33 94.40 1001 -13.30 93.31 TC 25 -13.32 93.30 1 12 220
1959 SI WA 10:00:00 TS -13.46 93.88 1001 bom 1408 1408 P_____O__PP___ SH021959 -13.43 93.30 -1 -13.50 94.20 1001 -13.43 93.30 TC 25 -13.46 93.29 1 12 219
1959 SI WA 12:00:00 TS -13.77 93.62 1455 1455 O_____P__OP___ jtwc_sh SH021959 -13.70 93.30 -1 -13.83 93.80 1001 -13.70 93.30 TC 25 -13.74 93.28 1 12 218
1959 SI WA 15:00:00 TS -14.25 93.24 1525 1525 P_____P__PP___ SH021959 -14.14 93.30 -1 -14.33 93.20 1001 -14.14 93.30 TC 25 -14.17 93.29 1 12 217
1959 SI WA 16:00:00 TS -14.41 93.12 1001 bom 1541 1541 P_____O__PP___ SH021959 -14.29 93.30 -1 -14.50 93.00 1001 -14.29 93.30 TC 25 -14.31 93.30 1 12 218
1959 SI WA 18:00:00 TS -14.73 92.86 1580 1580 O_____P__OO___ jtwc_sh SH021959 -14.60 93.30 -1 -14.83 92.61 1001 -14.60 93.30 TC 25 -14.60 93.30 1 12 219
1959 SI WA 19:00:00 TS -14.89 92.72 1001 bom 1611 1611 P_____O__PP___ SH021959 -14.75 93.29 -1 -15.00 92.40 1001 -14.75 93.29 TC 25 -14.75 93.29 1 13 221
1959 SI WA 21:00:00 TS -15.20 92.43 1658 1658 P_____P__PP___ SH021959 -15.05 93.26 -1 -15.33 91.94 1001 -15.05 93.26 TC 25 -15.04 93.26 1 13 221
1959 SI WA 22:00:00 TS -15.36 92.29 1001 bom 1682 1682 P_____O__PP___ SH021959 -15.20 93.25 -1 -15.50 91.70 1001 -15.20 93.25 TC 25 -15.19 93.24 1 12 221
1959 SI WA 1958-11-20 00:00:00 TS -15.66 92.03 1728 1728 O_____P__OP___ jtwc_sh SH021959 -15.50 93.20 -1 -15.86 91.19 1001 -15.50 93.20 TC 25 -15.48 93.20 1 11 219
1959 SI WA 01:00:00 TS -15.80 91.92 1002 bom 1743 1743 P_____O__PP___ SH021959 -15.65 93.17 -1 -16.00 91.00 1002 -15.65 93.17 TC 25 -15.64 93.18 1 9 210
1959 SI WA 03:00:00 TS -16.04 91.79 1767 1767 P_____P__PP___ SH021959 -15.95 93.11 -1 -16.14 90.91 1002 -15.95 93.11 TC 25 -15.94 93.12 1 8 203
1959 SI WA 04:00:00 TS -16.16 91.76 1002 bom 1784 1784 P_____O__PP___ SH021959 -16.10 93.08 -1 -16.20 90.90 1002 -16.10 93.08 TC 25 -16.09 93.08 1 8 198
1959 SI WA 06:00:00 TS -16.40 91.67 1808 1808 O_____P__OO___ jtwc_sh SH021959 -16.40 93.00 -1 -16.40 90.76 1002 -16.40 93.00 TC 25 -16.40 93.00 1 8 197
1959 SI WA 07:00:00 TS -16.52 91.64 1003 bom 1823 1823 P_____O__PP___ SH021959 -16.55 92.96 -1 -16.50 90.70 1003 -16.55 92.96 TC 25 -16.56 92.96 1 7 197
1959 SI WA 09:00:00 TS -16.74 91.56 1840 1840 P_____P__PP___ SH021959 -16.84 92.87 -1 -16.64 90.63 1003 -16.84 92.87 TC 25 -16.88 92.86 1 7 199
1959 SI WA 10:00:00 TS -16.85 91.52 1003 bom 1864 1864 P_____O__PP___ SH021959 -16.99 92.82 -1 -16.70 90.60 1003 -16.99 92.82 TC 25 -17.04 92.80 1 7 198
1959 SI WA 12:00:00 TS -17.07 91.44 1887 1887 O_____P__OP___ jtwc_sh SH021959 -17.30 92.70 -1 -16.86 90.53 1003 -17.30 92.70 TC 25 -17.36 92.67 1 7 201
1959 SI WA 15:00:00 TS -17.43 91.29 1919 1919 P_____P__PP___ SH021959 -17.81 92.47 -1 -17.11 90.43 1003 -17.81 92.47 TC 25 -17.84 92.46 1 8 202
1959 SI WA 16:00:00 TS -17.55 91.24 1004 bom 1935 1935 P_____O__PP___ SH021959 -17.98 92.39 -1 -17.20 90.40 1004 -17.98 92.39 TC 25 -18.00 92.37 1 8 206
1959 SI WA 18:00:00 TS -17.78 91.12 1964 1964 O_____P__OO___ jtwc_sh SH021959 -18.30 92.20 -1 -17.37 90.31 1004 -18.30 92.20 TC 25 -18.30 92.20 1 8 208
1959 SI WA 21:00:00 TS -18.10 90.92 2001 2001 P_____P__PP___ SH021959 -18.71 91.91 -1 -17.62 90.18 1004 -18.71 91.91 TC 25 -18.73 91.91 1 7 210
1959 SI WA 1958-11-21 00:00:00 TS -18.41 90.74 2038 2038 O_____P__OP___ jtwc_sh SH021959 -19.10 91.60 -1 -17.87 90.08 1004 -19.10 91.60 TC 25 -19.13 91.59 1 7 216
1959 SI WA 03:00:00 TS -18.63 90.51 2068 2068 P_____P__PP___ SH021959 -19.65 91.23 -1 -18.12 90.07 1004 -19.50 91.26 TC 25 -19.52 91.25 1 6 239
1959 SI WA 04:00:00 TS -18.61 90.39 1004 bom 2077 2077 P_____O__PP___ SH021959 -19.79 91.11 -1 -18.20 90.10 1004 -19.63 91.14 TC 25 -19.65 91.13 1 4 274
1959 SI WA 06:00:00 TS -18.62 90.31 2085 2077 O_____P__OO___ jtwc_sh SH021959 -19.90 90.90 -1 -18.38 90.20 1004 -19.90 90.90 TC 25 -19.90 90.90 1 1 0
1959 SI WA 09:00:00 TS -18.56 90.38 2077 2077 P_____P_______ SH021959 -19.32 90.67 -1 -18.63 90.42 1004 TC 1 2 90
1959 SI WA 10:00:00 TS -18.62 90.46 1004 bom 2068 2067 P_____O_______ SH021959 -19.07 90.62 -1 -18.70 90.50 1004 TC 1 5 128
1959 SI WA 12:00:00 TS -18.73 90.60 2067 2064 O_____P_______ jtwc_sh SH031959 -18.70 90.60 20 -1 -18.81 90.64 1004 1 6 133
1959 SI WA 15:00:00 TS -18.93 90.81 2064 2063 P_____P_______ SH031959 -18.82 90.75 17 -1 -18.95 90.84 1004 1 6 136
1959 SI WA 16:00:00 TS -19.01 90.88 1004 bom 2063 2063 P_____O_______ SH031959 -18.93 90.83 16 -1 -19.00 90.90 1004 1 6 144
1959 SI WA 18:00:00 TS -19.19 91.01 2070 2062 O_____P_______ jtwc_sh SH031959 -19.20 91.00 15 -1 -19.16 91.02 1004 7 148
1959 SI WA 21:00:00 TS -19.48 91.20 2076 2075 P_____P_______ SH031959 -19.49 91.21 17 -1 -19.46 91.19 1004 7 150
1959 SI WA 1958-11-22 00:00:00 TS -19.79 91.38 2083 2082 O_____P_______ jtwc_sh SH031959 -19.80 91.40 20 -1 -19.78 91.36 1005 7 153
1959 SI WA 03:00:00 TS -20.10 91.54 2098 2090 P_____P_______ SH031959 -20.11 91.55 20 -1 -20.10 91.54 1005 7 154
1959 SI WA 04:00:00 TS -20.20 91.60 1006 bom 2098 2098 P_____O_______ SH031959 -20.21 91.60 20 -1 -20.20 91.60 1006 7 151
1959 SI WA 06:00:00 TS -20.39 91.71 2106 2098 O_____P_______ jtwc_sh SH031959 -20.40 91.70 20 -1 -20.37 91.73 1006 6 147
1959 SI WA 09:00:00 TS -20.64 91.91 2107 2107 P_____P_______ SH031959 -20.66 91.89 17 -1 -20.62 91.93 1007 6 143
1959 SI WA 10:00:00 TS -20.72 91.98 1008 bom 2108 2108 P_____O_______ SH031959 -20.74 91.96 16 -1 -20.70 92.00 1008 6 140
1959 SI WA 12:00:00 TS -20.88 92.12 2116 2109 O_____P_______ jtwc_sh SH031959 -20.90 92.10 15 -1 -20.86 92.13 1009 6 140
1959 SI WA 15:00:00 NR -21.12 92.33 2118 2111 ______P_______ SH031959 -1 -21.11 92.34 1010 6 141
1959 SI WA 16:00:00 NR -21.20 92.40 2120 2120 ______P_______ SH031959 -1 -21.20 92.40 1011 6 143
1959 SI WA 18:00:00 NR -21.36 92.53 2129 2122 ______P_______ -1 -21.36 92.53 1012 6 144
1959 SI WA 21:00:00 NR -21.62 92.73 2132 2126 ______P_______ -1 -21.62 92.73 1013 6 144
1959 SI WA 22:00:00 NR -21.70 92.80 1014 bom 2126 ______O_______ -1 -21.70 92.80 1014 6 144